Flight Number: EUR2060 Duration: 9:00
Departure: St.Maarten (TNCM) at 21:30 Distance: 4007 Nm
Arrival: Munich Int'l (EDDM) at 06:30 Equipment: B777

Weather Information
Juliana Airport, Saint Maarten, Netherlands Antilles (TNCM) 18-03N 063-07W 9M Jan 21, 2019 - 07:00 AM EST / 2019.01.21 1200 UTC
Wind: from the E (100 degrees) at 8 MPH (7 KT) (direction variable):0
Visibility: greater than 7 mile(s):0
Sky conditions: partly cloudy Temperature: 77 F (25 C) Dew Point: 69 F (21 C) Relative Humidity: 78% Pressure (altimeter): 30.09 in. Hg (1018 hPa)
ob: TNCM 211200Z 10007KT 070V140 9999 FEW016 SCT035 25/21 Q1019 A3009 TEMPO SHRA RMK SHRA NW SE S cycle: 12
Sunrise: 10:49 Sunset: 21:58 (UTC)

Munchen, Germany (EDDM) 48-21N 011-47E Jan 21, 2019 - 07:20 AM EST / 2019.01.21 1220 UTC
Wind: from the ENE (060 degrees) at 3 MPH (3 KT) (direction variable):0
Visibility: greater than 7 mile(s):0
Sky conditions: mostly clear Temperature: 28 F (-2 C) Dew Point: 23 F (-5 C) Relative Humidity: 79% Pressure (altimeter): 30.09 in. Hg (1019 hPa)
ob: EDDM 211220Z 06003KT 350V090 9999 FEW016 M02/M05 Q1019 NOSIG cycle: 12
Sunrise: 06:57 Sunset: 15:50 (UTC)

TAF:2019/01/21 12:27 TAF EDDM 211100Z 2112/2218 VRB03KT 9000 SCT040 TEMPO 2200/2210 3000 BR PROB30 TEMPO 2202/2208 BKN007 BECMG 2212/2214 11005KT

Previous Pireps for this route
Date Aircraft Flight time Fuel used Landing rate On time
2013-02-21B7779.25231760No
2013-10-01B7779.021821500No
2013-11-03B7779.251822860No
2015-05-08B7779.041734000No
2015-06-23B7778.512001140No
2015-08-22B77710.29121897-173No
(pireps marked green are flown by you)

Route map